CGB2 weather

Bishell's Airport
Carstairs, Alberta, Canada

Public forecast

Using degrees Celsius for public forecast. Weather courtesy of forecast.io.

Closest aviation weather report (METAR) to Bishell's Airport

Closest report is Calgary International Airport, 28.2 nm (52.2 km) S. Retrieved 2019/12/11 11:00 UTC (2 minutes ago):

CYYC 111100Z 13005KT 2 1/2SM BR OVC005 M09/M11 A2981 RMK ST8 MOON DIMLY VISBL SLP158

Closest aviation forecast (TAF) to Bishell's Airport

Closest forecast is Calgary International Airport, 28.2 nm (52.2 km) S. Retrieved 2019/12/11 09:51 UTC (1 hour ago):

TAF CYYC 110849Z 1109/1206 15012KT 1/2SM FZFG VV002 TEMPO 1109/1113 3SM BR OVC006 FM111300 18008KT P6SM SCT006 SCT040 BKN120 TEMPO 1113/1115 4SM -SN BR BKN006 BKN040 OVC080 FM111500 22005KT P6SM -SN SCT006 BKN060 TEMPO 1115/1118 2SM -SN BR BKN006 OVC060 FM111800 33006KT P6SM SCT060 TEMPO 1118/1203 SCT006 BKN060 BECMG 1120/1122 14006KT FM120300 20005KT P6SM FEW006 SCT200 RMK NXT FCST BY 111200Z